Beaver County Airport Beaver Falls US
ICAO: KBVI
IATA: BFP
Category: Medium
Scheduled Services: No

Elevation: 1253 ft
TransAlt. 18000 ft.

Airport Communications:
PITTSBURGH APP/DEP:124.75
ATIS:118.35
PITTSBURGH CLNC DEL:124.85
CTAF:120.3
GND:121.8
ALTOONA RDO:115.8
TWR:120.3

KBVI Zoom In..

If you have problems with the map follow the link
https://www.worldairports.se/pages/airport.php?
ICAO=KBVI

Runways:

(A) RW 10 length 4501 ft width 100 ft
LOC 109.30 / hdg 101

(B) RW 28 length 4501 ft width 100 ft
LOC 109.30 / hdg 281

Location; KBVI
Day. 12 / Time. 23.16 Zulu
* Altimeter: 30.40
* Temperature: 00° c. 32°f.
* Wind from: 110° Speed 05 kn.
Dewpoint: -06° c.
Visibility: 10 Statute Miles.
Clouds: Clear (automated report).

KBVI 122316Z AUTO 11005KT 10SM CLR 00/M06 A3040 RMK AO2 T00011060


Wind From 110°
Speed 05 kn.

 
 
jpsmedia worldairports.se 2019   terms of use